PWSweather.com
Personal Weather Stations
Station Observations
LEONMETEO
LeonES 24008

LeonES 24008

Lat: 42.6055559, Lon: -5.5752249

Elevation: 2690

Station Type: La Crosse WS3600

Latest ConditionsUpdated 9:57:24 PM GMT+01:01 Thursday, May 28, 2015
Currently Today's Max Today's Min Today's Average
Temperature 70.8°F21.6°C 85.8°F29.9°C 70.8°F21.6°C 79.8°F26.6°C
Dew Point 49.5°F9.7°C 54.7°F12.6°C 45.9°F7.7°C 52.0°F11.1°C
Winds - N16091.8 kmh N Calm Calm - Calm Calm
Wind Gusts -- -- - -
Humidity 47% 47% 34% 38%
Pressure 29.80 in1009.1 mb 29.84 in1010.5 mb 29.75 in1007.5 mb -
Hour Temp Dew Point Humidity Winds Wind Gusts Pressure Precip Precip Rate Daily Precip Total
09:57 PM 70.8°F21.6°C 49.5°F9.7°C 47% - N16091.8 kmh N -- 29.80 in1009.1 mb 0.00 in0.0 mm 0.00 in0.0 mm 0.00 in0.0 mm
09:52 PM 71.0°F21.7°C 49.7°F9.8°C 47% - N16091.8 kmh N -- 29.80 in1009.1 mb 0.00 in0.0 mm 0.00 in0.0 mm 0.00 in0.0 mm
09:47 PM 71.2°F21.8°C 49.8°F9.9°C 47% - N16091.8 kmh N -- 29.79 in1008.8 mb 0.00 in0.0 mm 0.00 in0.0 mm 0.00 in0.0 mm
09:42 PM 71.4°F21.9°C 50.0°F10.0°C 47% - N16091.8 kmh N -- 29.79 in1008.8 mb 0.00 in0.0 mm 0.00 in0.0 mm 0.00 in0.0 mm
09:37 PM 71.9°F22.2°C 49.9°F9.9°C 46% - N16091.8 kmh N -- 29.79 in1008.8 mb 0.00 in0.0 mm 0.00 in0.0 mm 0.00 in0.0 mm
09:32 PM 72.1°F22.3°C 50.0°F10.0°C 46% - N16091.8 kmh N -- 29.79 in1008.8 mb 0.00 in0.0 mm 0.00 in0.0 mm 0.00 in0.0 mm
09:27 PM 72.1°F22.3°C 50.0°F10.0°C 46% - N16091.8 kmh N -- 29.78 in1008.5 mb 0.00 in0.0 mm 0.00 in0.0 mm 0.00 in0.0 mm
09:22 PM 72.3°F22.4°C 50.2°F10.1°C 46% - N16091.8 kmh N -- 29.79 in1008.8 mb 0.00 in0.0 mm 0.00 in0.0 mm 0.00 in0.0 mm
09:17 PM 72.5°F22.5°C 50.4°F10.2°C 46% - N16091.8 kmh N -- 29.78 in1008.5 mb 0.00 in0.0 mm 0.00 in0.0 mm 0.00 in0.0 mm
09:12 PM 73.0°F22.8°C 50.3°F10.2°C 45% - N16091.8 kmh N -- 29.78 in1008.5 mb 0.00 in0.0 mm 0.00 in0.0 mm 0.00 in0.0 mm
09:07 PM 73.2°F22.9°C 50.4°F10.2°C 45% - N16091.8 kmh N -- 29.77 in1008.1 mb 0.00 in0.0 mm 0.00 in0.0 mm 0.00 in0.0 mm
09:02 PM 73.9°F23.3°C 50.5°F10.3°C 45% - N16091.8 kmh N -- 29.77 in1008.1 mb 0.00 in0.0 mm 0.00 in0.0 mm 0.00 in0.0 mm
08:57 PM 74.4°F23.6°C 51.0°F10.6°C 44% - N16091.8 kmh N -- 29.77 in1008.1 mb 0.00 in0.0 mm 0.00 in0.0 mm 0.00 in0.0 mm
08:52 PM 74.8°F23.8°C 51.3°F10.7°C 44% - N16091.8 kmh N -- 29.77 in1008.1 mb 0.00 in0.0 mm 0.00 in0.0 mm 0.00 in0.0 mm
08:47 PM 75.2°F24.0°C 51.7°F10.9°C 44% - N16091.8 kmh N -- 29.77 in1008.1 mb 0.00 in0.0 mm 0.00 in0.0 mm 0.00 in0.0 mm
08:42 PM 75.9°F24.4°C 51.7°F10.9°C 43% - N16091.8 kmh N -- 29.77 in1008.1 mb 0.00 in0.0 mm 0.00 in0.0 mm 0.00 in0.0 mm
08:37 PM 76.2°F24.6°C 52.0°F11.1°C 43% - N16091.8 kmh N -- 29.77 in1008.1 mb 0.00 in0.0 mm 0.00 in0.0 mm 0.00 in0.0 mm
08:32 PM 76.8°F24.9°C 51.9°F11.1°C 42% - N16091.8 kmh N -- 29.77 in1008.1 mb 0.00 in0.0 mm 0.00 in0.0 mm 0.00 in0.0 mm
08:26 PM 77.9°F25.5°C 52.9°F11.6°C 42% - N16091.8 kmh N -- 29.76 in1007.8 mb 0.00 in0.0 mm 0.00 in0.0 mm 0.00 in0.0 mm
08:21 PM 78.6°F25.9°C 52.9°F11.6°C 41% - N16091.8 kmh N -- 29.76 in1007.8 mb 0.00 in0.0 mm 0.00 in0.0 mm 0.00 in0.0 mm
08:16 PM 79.1°F26.2°C 53.4°F11.9°C 41% - N16091.8 kmh N -- 29.77 in1008.1 mb 0.00 in0.0 mm 0.00 in0.0 mm 0.00 in0.0 mm
08:11 PM 80.2°F26.8°C 53.8°F12.1°C 40% - N16091.8 kmh N -- 29.76 in1007.8 mb 0.00 in0.0 mm 0.00 in0.0 mm 0.00 in0.0 mm
08:06 PM 80.7°F27.1°C 54.3°F12.4°C 40% - N16091.8 kmh N -- 29.76 in1007.8 mb 0.00 in0.0 mm 0.00 in0.0 mm 0.00 in0.0 mm
08:01 PM 81.3°F27.4°C 54.0°F12.2°C 39% - N16091.8 kmh N -- 29.76 in1007.8 mb 0.00 in0.0 mm 0.00 in0.0 mm 0.00 in0.0 mm
07:56 PM 82.0°F27.8°C 53.8°F12.1°C 38% - N16091.8 kmh N -- 29.76 in1007.8 mb 0.00 in0.0 mm 0.00 in0.0 mm 0.00 in0.0 mm
07:51 PM 82.5°F28.1°C 54.3°F12.4°C 38% - N16091.8 kmh N -- 29.76 in1007.8 mb 0.00 in0.0 mm 0.00 in0.0 mm 0.00 in0.0 mm
07:46 PM 82.9°F28.3°C 53.8°F12.1°C 37% - N16091.8 kmh N -- 29.76 in1007.8 mb 0.00 in0.0 mm 0.00 in0.0 mm 0.00 in0.0 mm
07:41 PM 83.4°F28.6°C 53.5°F11.9°C 36% - N16091.8 kmh N -- 29.76 in1007.8 mb 0.00 in0.0 mm 0.00 in0.0 mm 0.00 in0.0 mm
07:36 PM 83.8°F28.8°C 53.0°F11.7°C 36% - N16091.8 kmh N -- 29.76 in1007.8 mb 0.00 in0.0 mm 0.00 in0.0 mm 0.00 in0.0 mm
07:31 PM 83.8°F28.8°C 53.0°F11.7°C 35% - N16091.8 kmh N -- 29.76 in1007.8 mb 0.00 in0.0 mm 0.00 in0.0 mm 0.00 in0.0 mm
07:26 PM 83.3°F28.5°C 52.6°F11.4°C 35% - N16091.8 kmh N -- 29.76 in1007.8 mb 0.00 in0.0 mm 0.00 in0.0 mm 0.00 in0.0 mm
07:21 PM 83.8°F28.8°C 53.0°F11.7°C 35% - N16091.8 kmh N -- 29.76 in1007.8 mb 0.00 in0.0 mm 0.00 in0.0 mm 0.00 in0.0 mm
07:16 PM 84.0°F28.9°C 53.2°F11.8°C 35% - N16091.8 kmh N -- 29.76 in1007.8 mb 0.00 in0.0 mm 0.00 in0.0 mm 0.00 in0.0 mm
07:11 PM 85.1°F29.5°C 54.2°F12.3°C 35% - N16091.8 kmh N -- 29.76 in1007.8 mb 0.00 in0.0 mm 0.00 in0.0 mm 0.00 in0.0 mm
07:06 PM 85.2°F29.6°C 53.6°F12.0°C 35% - N16091.8 kmh N -- 29.76 in1007.8 mb 0.00 in0.0 mm 0.00 in0.0 mm 0.00 in0.0 mm
07:01 PM 85.2°F29.6°C 53.6°F12.0°C 34% - N16091.8 kmh N -- 29.75 in1007.5 mb 0.00 in0.0 mm 0.00 in0.0 mm 0.00 in0.0 mm
06:56 PM 85.2°F29.6°C 53.6°F12.0°C 34% - N16091.8 kmh N -- 29.76 in1007.8 mb 0.00 in0.0 mm 0.00 in0.0 mm 0.00 in0.0 mm
06:51 PM 85.2°F29.6°C 53.6°F12.0°C 35% - N16091.8 kmh N -- 29.76 in1007.8 mb 0.00 in0.0 mm 0.00 in0.0 mm 0.00 in0.0 mm
06:46 PM 85.4°F29.7°C 53.7°F12.1°C 34% - N16091.8 kmh N -- 29.76 in1007.8 mb 0.00 in0.0 mm 0.00 in0.0 mm 0.00 in0.0 mm
06:41 PM 85.8°F29.9°C 54.0°F12.2°C 34% - N16091.8 kmh N -- 29.76 in1007.8 mb 0.00 in0.0 mm 0.00 in0.0 mm 0.00 in0.0 mm
06:36 PM 85.6°F29.8°C 54.7°F12.6°C 34% - N16091.8 kmh N -- 29.76 in1007.8 mb 0.00 in0.0 mm 0.00 in0.0 mm 0.00 in0.0 mm
06:31 PM 85.6°F29.8°C 54.7°F12.6°C 35% - N16091.8 kmh N -- 29.76 in1007.8 mb 0.00 in0.0 mm 0.00 in0.0 mm 0.00 in0.0 mm
06:26 PM 85.2°F29.6°C 54.3°F12.4°C 35% - N16091.8 kmh N -- 29.76 in1007.8 mb 0.00 in0.0 mm 0.00 in0.0 mm 0.00 in0.0 mm
06:20 PM 84.9°F29.4°C 54.0°F12.2°C 35% - N16091.8 kmh N -- 29.76 in1007.8 mb 0.00 in0.0 mm 0.00 in0.0 mm 0.00 in0.0 mm
06:15 PM 84.5°F29.2°C 53.7°F12.1°C 35% - N16091.8 kmh N -- 29.76 in1007.8 mb 0.00 in0.0 mm 0.00 in0.0 mm 0.00 in0.0 mm
06:10 PM 84.0°F28.9°C 53.2°F11.8°C 35% - N16091.8 kmh N -- 29.76 in1007.8 mb 0.00 in0.0 mm 0.00 in0.0 mm 0.00 in0.0 mm
06:05 PM 83.8°F28.8°C 53.0°F11.7°C 35% - N16091.8 kmh N -- 29.76 in1007.8 mb 0.00 in0.0 mm 0.00 in0.0 mm 0.00 in0.0 mm
06:00 PM 83.8°F28.8°C 53.0°F11.7°C 35% - N16091.8 kmh N -- 29.77 in1008.1 mb 0.00 in0.0 mm 0.00 in0.0 mm 0.00 in0.0 mm
05:55 PM 83.8°F28.8°C 53.0°F11.7°C 35% - N16091.8 kmh N -- 29.77 in1008.1 mb 0.00 in0.0 mm 0.00 in0.0 mm 0.00 in0.0 mm
05:50 PM 83.4°F28.6°C 52.7°F11.5°C 35% - N16091.8 kmh N -- 29.77 in1008.1 mb 0.00 in0.0 mm 0.00 in0.0 mm 0.00 in0.0 mm
05:45 PM 83.1°F28.4°C 52.4°F11.3°C 35% - N16091.8 kmh N -- 29.77 in1008.1 mb 0.00 in0.0 mm 0.00 in0.0 mm 0.00 in0.0 mm
05:40 PM 83.1°F28.4°C 52.4°F11.3°C 35% - N16091.8 kmh N -- 29.77 in1008.1 mb 0.00 in0.0 mm 0.00 in0.0 mm 0.00 in0.0 mm
05:35 PM 82.9°F28.3°C 52.2°F11.2°C 35% - N16091.8 kmh N -- 29.77 in1008.1 mb 0.00 in0.0 mm 0.00 in0.0 mm 0.00 in0.0 mm
05:30 PM 82.5°F28.1°C 52.7°F11.5°C 36% - N16091.8 kmh N -- 29.77 in1008.1 mb 0.00 in0.0 mm 0.00 in0.0 mm 0.00 in0.0 mm
05:25 PM 82.4°F28.0°C 52.5°F11.4°C 36% - N16091.8 kmh N -- 29.78 in1008.5 mb 0.00 in0.0 mm 0.00 in0.0 mm 0.00 in0.0 mm
05:20 PM 82.2°F27.9°C 52.4°F11.3°C 36% - N16091.8 kmh N -- 29.78 in1008.5 mb 0.00 in0.0 mm 0.00 in0.0 mm 0.00 in0.0 mm
05:15 PM 82.0°F27.8°C 52.2°F11.2°C 36% - N16091.8 kmh N -- 29.78 in1008.5 mb 0.00 in0.0 mm 0.00 in0.0 mm 0.00 in0.0 mm
05:10 PM 82.0°F27.8°C 52.2°F11.2°C 36% - N16091.8 kmh N -- 29.78 in1008.5 mb 0.00 in0.0 mm 0.00 in0.0 mm 0.00 in0.0 mm
05:05 PM 81.6°F27.6°C 51.9°F11.1°C 36% - N16091.8 kmh N -- 29.78 in1008.5 mb 0.00 in0.0 mm 0.00 in0.0 mm 0.00 in0.0 mm
05:00 PM 81.6°F27.6°C 51.9°F11.1°C 36% - N16091.8 kmh N -- 29.78 in1008.5 mb 0.00 in0.0 mm 0.00 in0.0 mm 0.00 in0.0 mm
04:55 PM 81.5°F27.5°C 51.8°F11.0°C 36% - N16091.8 kmh N -- 29.78 in1008.5 mb 0.00 in0.0 mm 0.00 in0.0 mm 0.00 in0.0 mm
04:50 PM 81.1°F27.3°C 52.2°F11.2°C 36% - N16091.8 kmh N -- 29.79 in1008.8 mb 0.00 in0.0 mm 0.00 in0.0 mm 0.00 in0.0 mm
04:43 PM 81.1°F27.3°C 52.2°F11.2°C 36% - N16091.8 kmh N -- 29.79 in1008.8 mb 0.00 in0.0 mm 0.00 in0.0 mm 0.00 in0.0 mm
04:37 PM 81.1°F27.3°C 52.2°F11.2°C 36% - N16091.8 kmh N -- 29.79 in1008.8 mb 0.00 in0.0 mm 0.00 in0.0 mm 0.00 in0.0 mm
04:32 PM 80.9°F27.2°C 52.1°F11.2°C 37% - N16091.8 kmh N -- 29.80 in1009.1 mb 0.00 in0.0 mm 0.00 in0.0 mm 0.00 in0.0 mm
04:27 PM 80.7°F27.1°C 51.9°F11.1°C 37% - N16091.8 kmh N -- 29.80 in1009.1 mb 0.00 in0.0 mm 0.00 in0.0 mm 0.00 in0.0 mm
04:22 PM 80.7°F27.1°C 51.9°F11.1°C 37% - N16091.8 kmh N -- 29.80 in1009.1 mb 0.00 in0.0 mm 0.00 in0.0 mm 0.00 in0.0 mm
04:17 PM 80.7°F27.1°C 51.9°F11.1°C 37% - N16091.8 kmh N -- 29.80 in1009.1 mb 0.00 in0.0 mm 0.00 in0.0 mm 0.00 in0.0 mm
04:12 PM 80.2°F26.8°C 51.4°F10.8°C 37% - N16091.8 kmh N -- 29.80 in1009.1 mb 0.00 in0.0 mm 0.00 in0.0 mm 0.00 in0.0 mm
04:07 PM 80.2°F26.8°C 51.4°F10.8°C 37% - N16091.8 kmh N -- 29.80 in1009.1 mb 0.00 in0.0 mm 0.00 in0.0 mm 0.00 in0.0 mm
04:02 PM 80.2°F26.8°C 51.4°F10.8°C 37% - N16091.8 kmh N -- 29.80 in1009.1 mb 0.00 in0.0 mm 0.00 in0.0 mm 0.00 in0.0 mm
03:57 PM 79.8°F26.6°C 51.9°F11.1°C 38% - N16091.8 kmh N -- 29.80 in1009.1 mb 0.00 in0.0 mm 0.00 in0.0 mm 0.00 in0.0 mm
03:52 PM 79.7°F26.5°C 51.7°F10.9°C 38% - N16091.8 kmh N -- 29.80 in1009.1 mb 0.00 in0.0 mm 0.00 in0.0 mm 0.00 in0.0 mm
03:47 PM 79.3°F26.3°C 51.4°F10.8°C 38% - N16091.8 kmh N -- 29.80 in1009.1 mb 0.00 in0.0 mm 0.00 in0.0 mm 0.00 in0.0 mm
03:42 PM 79.3°F26.3°C 51.4°F10.8°C 38% - N16091.8 kmh N -- 29.81 in1009.5 mb 0.00 in0.0 mm 0.00 in0.0 mm 0.00 in0.0 mm
03:37 PM 79.3°F26.3°C 51.4°F10.8°C 38% - N16091.8 kmh N -- 29.81 in1009.5 mb 0.00 in0.0 mm 0.00 in0.0 mm 0.00 in0.0 mm
03:32 PM 78.9°F26.1°C 51.1°F10.6°C 38% - N16091.8 kmh N -- 29.81 in1009.5 mb 0.00 in0.0 mm 0.00 in0.0 mm 0.00 in0.0 mm
03:27 PM 78.9°F26.1°C 51.1°F10.6°C 38% - N16091.8 kmh N -- 29.81 in1009.5 mb 0.00 in0.0 mm 0.00 in0.0 mm 0.00 in0.0 mm
03:22 PM 78.6°F25.9°C 51.5°F10.8°C 38% - N16091.8 kmh N -- 29.81 in1009.5 mb 0.00 in0.0 mm 0.00 in0.0 mm 0.00 in0.0 mm
03:16 PM 78.0°F25.6°C 51.1°F10.6°C 39% - N16091.8 kmh N -- 29.81 in1009.5 mb 0.00 in0.0 mm 0.00 in0.0 mm 0.00 in0.0 mm
03:11 PM 77.9°F25.5°C 50.9°F10.5°C 39% - N16091.8 kmh N -- 29.81 in1009.5 mb 0.00 in0.0 mm 0.00 in0.0 mm 0.00 in0.0 mm
03:06 PM 77.7°F25.4°C 50.7°F10.4°C 39% - N16091.8 kmh N -- 29.82 in1009.8 mb 0.00 in0.0 mm 0.00 in0.0 mm 0.00 in0.0 mm
03:01 PM 77.5°F25.3°C 50.6°F10.3°C 39% - N16091.8 kmh N -- 29.82 in1009.8 mb 0.00 in0.0 mm 0.00 in0.0 mm 0.00 in0.0 mm
02:56 PM 77.5°F25.3°C 50.6°F10.3°C 39% - N16091.8 kmh N -- 29.82 in1009.8 mb 0.00 in0.0 mm 0.00 in0.0 mm 0.00 in0.0 mm
01:44 PM 72.6°F22.6°C 47.0°F8.3°C 40% - N16091.8 kmh N -- 29.84 in1010.5 mb 0.00 in0.0 mm 0.00 in0.0 mm 0.00 in0.0 mm
01:38 PM 72.5°F22.5°C 46.1°F7.8°C 39% - N16091.8 kmh N -- 29.84 in1010.5 mb 0.00 in0.0 mm 0.00 in0.0 mm 0.00 in0.0 mm
01:34 PM 72.3°F22.4°C 45.9°F7.7°C 39% - N16091.8 kmh N -- 29.84 in1010.5 mb 0.00 in0.0 mm 0.00 in0.0 mm 0.00 in0.0 mm